createdAt,value
2018-08-12T00:00:23.329Z,14.40
2018-08-12T00:02:52.143Z,14.40
2018-08-12T00:05:20.656Z,14.30
2018-08-12T00:07:49.135Z,14.20
2018-08-12T00:10:17.901Z,14.30
2018-08-12T00:12:46.403Z,14.30
2018-08-12T00:15:16.841Z,14.30
2018-08-12T00:17:45.272Z,14.30
2018-08-12T00:20:15.993Z,14.30
2018-08-12T00:22:44.945Z,14.30
2018-08-12T00:25:15.504Z,14.20
2018-08-12T00:27:43.996Z,14.20
2018-08-12T00:30:14.081Z,14.20
2018-08-12T00:32:42.764Z,14.20
2018-08-12T00:35:12.888Z,14.20
2018-08-12T00:37:42.144Z,14.20
2018-08-12T00:40:13.251Z,14.20
2018-08-12T00:42:41.804Z,14.20
2018-08-12T00:45:13.222Z,14.10
2018-08-12T00:47:41.767Z,14.10
2018-08-12T00:50:11.369Z,14.10
2018-08-12T00:52:39.882Z,14.10
2018-08-12T00:55:10.712Z,14.10
2018-08-12T00:57:42.376Z,14.10
2018-08-12T01:00:13.373Z,14.00
2018-08-12T01:02:42.048Z,13.90
2018-08-12T01:05:12.734Z,13.90
2018-08-12T01:07:41.709Z,13.90
2018-08-12T01:10:11.011Z,13.80
2018-08-12T01:12:39.545Z,13.80
2018-08-12T01:15:11.168Z,13.80
2018-08-12T01:17:39.708Z,13.80
2018-08-12T01:20:09.704Z,13.70
2018-08-12T01:22:39.039Z,13.70
2018-08-12T01:25:08.461Z,13.70
2018-08-12T01:27:37.144Z,13.80
2018-08-12T01:30:08.025Z,13.70
2018-08-12T01:32:36.565Z,13.70
2018-08-12T01:35:06.136Z,13.70
2018-08-12T01:37:34.589Z,13.60
2018-08-12T01:40:03.171Z,13.60
2018-08-12T01:42:31.602Z,13.60
2018-08-12T01:45:00.076Z,13.60
2018-08-12T01:47:28.585Z,13.60
2018-08-12T01:49:57.261Z,13.50
2018-08-12T01:52:25.749Z,13.50
2018-08-12T01:54:54.216Z,13.40
2018-08-12T01:57:22.700Z,13.40
2018-08-12T01:59:51.176Z,13.40
2018-08-12T02:02:19.600Z,13.40
2018-08-12T02:04:48.036Z,13.40
2018-08-12T02:07:16.585Z,13.40
2018-08-12T02:09:45.073Z,13.40
2018-08-12T02:12:13.547Z,13.30
2018-08-12T02:14:42.007Z,13.30
2018-08-12T02:17:10.963Z,13.30
2018-08-12T02:19:39.380Z,13.30
2018-08-12T02:22:07.972Z,13.20
2018-08-12T02:24:36.452Z,13.30
2018-08-12T02:27:04.918Z,13.30
2018-08-12T02:29:33.360Z,13.30
2018-08-12T02:32:01.856Z,13.20
2018-08-12T02:34:30.333Z,13.20
2018-08-12T02:36:58.841Z,13.20
2018-08-12T02:39:27.437Z,13.20
2018-08-12T02:41:55.896Z,13.20
2018-08-12T02:44:24.449Z,13.20
2018-08-12T02:46:52.893Z,13.20
2018-08-12T02:49:21.379Z,13.20
2018-08-12T02:51:49.893Z,13.10
2018-08-12T02:54:18.398Z,13.10
2018-08-12T02:56:46.868Z,13.10
2018-08-12T02:59:15.353Z,13.10
2018-08-12T03:01:43.848Z,13.10
2018-08-12T03:04:12.360Z,13.10
2018-08-12T03:06:40.789Z,13.10
2018-08-12T03:09:11.473Z,13.10
2018-08-12T03:11:39.987Z,13.00
2018-08-12T03:14:09.535Z,12.90
2018-08-12T03:16:38.183Z,12.90
2018-08-12T03:19:06.673Z,12.90
2018-08-12T03:21:35.245Z,12.80
2018-08-12T03:24:03.773Z,12.90
2018-08-12T03:26:32.272Z,12.90
2018-08-12T03:29:00.688Z,12.90
2018-08-12T03:31:29.168Z,12.80
2018-08-12T03:33:57.624Z,12.90
2018-08-12T03:36:26.120Z,12.90
2018-08-12T03:38:54.597Z,12.90
2018-08-12T03:41:23.127Z,12.80
2018-08-12T03:43:51.585Z,12.80
2018-08-12T03:46:20.098Z,12.90
2018-08-12T03:48:48.578Z,12.80
2018-08-12T03:51:17.016Z,12.70
2018-08-12T03:53:45.468Z,12.70
2018-08-12T03:56:13.952Z,12.70
2018-08-12T03:58:42.430Z,12.60
2018-08-12T04:01:10.875Z,12.60
2018-08-12T04:03:39.332Z,12.60
2018-08-12T04:06:08.037Z,12.60
2018-08-12T04:08:36.477Z,12.70
2018-08-12T04:11:04.996Z,12.70
2018-08-12T04:13:33.437Z,12.70
2018-08-12T04:16:01.879Z,12.70
2018-08-12T04:18:30.344Z,12.70
2018-08-12T04:20:58.861Z,12.70
2018-08-12T04:23:27.323Z,12.70
2018-08-12T04:25:55.813Z,12.70
2018-08-12T04:28:24.252Z,12.60
2018-08-12T04:30:52.719Z,12.70
2018-08-12T04:33:21.239Z,12.60
2018-08-12T04:35:49.720Z,12.60
2018-08-12T04:38:18.188Z,12.70
2018-08-12T04:40:46.680Z,12.70
2018-08-12T04:43:15.109Z,12.70
2018-08-12T04:45:43.555Z,12.70
2018-08-12T04:48:12.021Z,12.80
2018-08-12T04:50:40.490Z,12.90
2018-08-12T04:53:08.944Z,12.90
2018-08-12T04:55:37.415Z,12.90
2018-08-12T04:58:05.888Z,12.90
2018-08-12T05:00:34.371Z,12.90
2018-08-12T05:03:02.819Z,12.90
2018-08-12T05:05:31.290Z,13.00
2018-08-12T05:07:59.772Z,13.00
2018-08-12T05:10:28.516Z,13.10
2018-08-12T05:12:56.998Z,13.10
2018-08-12T05:15:25.537Z,13.20
2018-08-12T05:17:54.012Z,13.20
2018-08-12T05:20:22.500Z,13.20
2018-08-12T05:22:50.982Z,13.30
2018-08-12T05:25:19.437Z,13.30
2018-08-12T05:27:47.936Z,13.30
2018-08-12T05:30:16.385Z,13.30
2018-08-12T05:32:44.932Z,13.40
2018-08-12T05:35:13.787Z,13.40
2018-08-12T05:37:42.805Z,13.50
2018-08-12T05:40:12.485Z,13.50
2018-08-12T05:42:41.156Z,13.60
2018-08-12T05:45:10.776Z,13.70
2018-08-12T05:47:39.852Z,13.90
2018-08-12T05:50:09.805Z,13.90
2018-08-12T05:52:38.284Z,14.00
2018-08-12T05:55:07.251Z,14.10
2018-08-12T05:57:35.746Z,14.10
2018-08-12T06:00:05.168Z,14.20
2018-08-12T06:02:33.658Z,14.30
2018-08-12T06:05:02.134Z,14.40
2018-08-12T06:07:30.611Z,14.60
2018-08-12T06:09:59.090Z,14.80
2018-08-12T06:12:27.596Z,14.90
2018-08-12T06:14:56.056Z,15.00
2018-08-12T06:17:24.520Z,15.20
2018-08-12T06:19:52.965Z,15.30
2018-08-12T06:22:21.404Z,15.40
2018-08-12T06:24:49.845Z,15.70
2018-08-12T06:27:18.323Z,15.90
2018-08-12T06:29:46.808Z,16.10
2018-08-12T06:32:15.298Z,16.50
2018-08-12T06:34:43.789Z,17.10
2018-08-12T06:37:12.580Z,17.50
2018-08-12T06:39:41.116Z,18.20
2018-08-12T06:42:09.547Z,18.80
2018-08-12T06:44:38.309Z,19.30
2018-08-12T06:47:06.790Z,19.80
2018-08-12T06:49:35.438Z,20.20
2018-08-12T06:52:04.019Z,20.40
2018-08-12T06:54:32.412Z,20.70
2018-08-12T06:57:00.889Z,20.80
2018-08-12T06:59:29.440Z,20.90
2018-08-12T07:01:57.900Z,21.10
2018-08-12T07:04:27.080Z,21.30
2018-08-12T07:06:55.549Z,21.40
2018-08-12T07:09:24.648Z,21.50
2018-08-12T07:11:53.263Z,21.50
2018-08-12T07:14:21.777Z,21.50
2018-08-12T07:16:50.263Z,21.60
2018-08-12T07:19:18.688Z,21.60
2018-08-12T07:21:47.121Z,21.60
2018-08-12T07:24:15.712Z,21.60
2018-08-12T07:26:44.184Z,21.70
2018-08-12T07:29:12.653Z,21.80
2018-08-12T07:31:41.148Z,21.80
2018-08-12T07:34:09.604Z,21.90
2018-08-12T07:36:38.076Z,22.00
2018-08-12T07:39:07.967Z,22.00
2018-08-12T07:41:36.499Z,22.10
2018-08-12T07:44:05.018Z,22.10
2018-08-12T07:46:33.928Z,22.10
2018-08-12T07:49:02.629Z,22.10
2018-08-12T07:51:31.066Z,22.10
2018-08-12T07:53:59.700Z,22.00
2018-08-12T07:56:28.204Z,22.10
2018-08-12T07:58:56.685Z,22.10
2018-08-12T08:01:25.594Z,22.10
2018-08-12T08:03:54.523Z,22.30
2018-08-12T08:06:23.060Z,22.30
2018-08-12T08:08:51.452Z,22.30
2018-08-12T08:11:20.038Z,22.40
2018-08-12T08:13:48.615Z,22.50
2018-08-12T08:16:17.089Z,22.60
2018-08-12T08:18:45.569Z,22.70
2018-08-12T08:21:14.884Z,22.80
2018-08-12T08:23:43.412Z,23.00
2018-08-12T08:26:11.882Z,22.80
2018-08-12T08:28:40.327Z,22.90
2018-08-12T08:31:08.779Z,23.00
2018-08-12T08:33:37.204Z,22.90
2018-08-12T08:36:05.985Z,23.00
2018-08-12T08:38:34.589Z,23.00
2018-08-12T08:41:03.052Z,23.10
2018-08-12T08:43:31.506Z,23.30
2018-08-12T08:45:59.965Z,23.40
2018-08-12T08:48:29.356Z,23.40
2018-08-12T08:50:57.824Z,23.40
2018-08-12T08:53:26.501Z,23.40
2018-08-12T08:55:54.995Z,23.50
2018-08-12T08:58:23.543Z,23.40
2018-08-12T09:00:51.993Z,23.60
2018-08-12T09:03:20.480Z,23.60
2018-08-12T09:05:49.006Z,23.80
2018-08-12T09:08:17.550Z,23.80
2018-08-12T09:10:45.988Z,23.70
2018-08-12T09:13:14.496Z,23.70
2018-08-12T09:15:43.041Z,23.80
2018-08-12T09:18:11.543Z,23.70
2018-08-12T09:20:40.025Z,23.90
2018-08-12T09:23:08.448Z,23.90
2018-08-12T09:25:36.897Z,24.00
2018-08-12T09:28:05.580Z,24.00
2018-08-12T09:30:34.076Z,24.10
2018-08-12T09:33:02.565Z,24.20
2018-08-12T09:35:31.088Z,24.30
2018-08-12T09:37:59.576Z,24.20
2018-08-12T09:40:29.147Z,24.10
2018-08-12T09:42:57.618Z,24.40
2018-08-12T09:45:26.062Z,24.50
2018-08-12T09:47:54.531Z,24.50
2018-08-12T09:50:22.987Z,24.60
2018-08-12T09:52:52.542Z,24.60
2018-08-12T09:55:21.305Z,24.40
2018-08-12T09:57:49.796Z,24.50
2018-08-12T10:00:23.885Z,24.50
2018-08-12T10:02:53.951Z,24.60
2018-08-12T10:05:22.840Z,24.80
2018-08-12T10:07:51.411Z,24.90
2018-08-12T10:10:19.904Z,24.90
2018-08-12T10:12:48.425Z,24.90
2018-08-12T10:15:17.340Z,25.00
2018-08-12T10:17:57.025Z,24.90
2018-08-12T10:20:25.593Z,24.90
2018-08-12T10:22:54.121Z,24.90
2018-08-12T10:25:22.617Z,24.90
2018-08-12T10:27:51.090Z,25.00
2018-08-12T10:30:19.583Z,25.10
2018-08-12T10:32:48.057Z,25.10
2018-08-12T10:35:17.273Z,25.30
2018-08-12T10:37:46.245Z,25.40
2018-08-12T10:40:16.680Z,25.40
2018-08-12T10:42:46.086Z,25.50
2018-08-12T10:45:14.636Z,25.50
2018-08-12T10:47:43.684Z,25.50
2018-08-12T10:50:15.733Z,25.70
2018-08-12T10:52:45.255Z,25.60
2018-08-12T10:55:15.332Z,25.70
2018-08-12T10:57:43.923Z,25.60
2018-08-12T11:00:15.777Z,25.70
2018-08-12T11:02:45.024Z,25.70
2018-08-12T11:05:14.649Z,25.60
2018-08-12T11:07:43.837Z,25.60
2018-08-12T11:10:12.876Z,25.60
2018-08-12T11:12:41.821Z,25.70
2018-08-12T11:15:10.760Z,25.80
2018-08-12T11:17:40.177Z,25.70
2018-08-12T11:20:09.352Z,25.70
2018-08-12T11:22:37.993Z,25.60
2018-08-12T11:25:07.793Z,25.70
2018-08-12T11:27:36.307Z,25.80
2018-08-12T11:30:10.493Z,25.80
2018-08-12T11:32:39.136Z,26.10
2018-08-12T11:35:09.469Z,26.10
2018-08-12T11:37:38.042Z,26.00
2018-08-12T11:40:08.034Z,26.00
2018-08-12T11:42:36.495Z,26.20
2018-08-12T11:45:07.482Z,26.30
2018-08-12T11:47:36.066Z,26.40
2018-08-12T11:50:05.657Z,26.50
2018-08-12T11:52:34.131Z,26.60
2018-08-12T11:55:03.428Z,26.60
2018-08-12T11:57:31.880Z,26.60
2018-08-12T12:00:00.370Z,26.50
2018-08-12T12:02:28.864Z,26.40
2018-08-12T12:04:57.408Z,26.40
2018-08-12T12:07:25.900Z,26.50
2018-08-12T12:09:54.412Z,26.60
2018-08-12T12:12:22.884Z,26.60
2018-08-12T12:14:51.377Z,26.50
2018-08-12T12:17:19.851Z,26.30
2018-08-12T12:19:48.387Z,26.30
2018-08-12T12:22:16.925Z,26.30
2018-08-12T12:24:45.457Z,26.50
2018-08-12T12:27:13.943Z,26.70
2018-08-12T12:29:42.452Z,26.80
2018-08-12T12:32:10.981Z,26.80
2018-08-12T12:34:39.452Z,26.90
2018-08-12T12:37:07.931Z,26.80
2018-08-12T12:39:36.415Z,26.80
2018-08-12T12:42:11.299Z,26.80
2018-08-12T12:44:39.825Z,26.80
2018-08-12T12:47:08.295Z,26.70
2018-08-12T12:49:36.881Z,26.30
2018-08-12T12:52:05.308Z,26.40
2018-08-12T12:54:33.779Z,26.40
2018-08-12T12:57:02.260Z,26.60
2018-08-12T12:59:30.723Z,26.80
2018-08-12T13:01:59.232Z,26.90
2018-08-12T13:04:27.724Z,27.00
2018-08-12T13:06:57.009Z,27.10
2018-08-12T13:09:25.904Z,27.20
2018-08-12T13:11:54.707Z,27.20
2018-08-12T13:14:23.185Z,27.20
2018-08-12T13:16:51.744Z,27.00
2018-08-12T13:19:20.203Z,27.10
2018-08-12T13:21:48.688Z,27.00
2018-08-12T13:24:17.165Z,27.20
2018-08-12T13:26:45.656Z,27.30
2018-08-12T13:29:14.102Z,27.40
2018-08-12T13:31:42.559Z,27.50
2018-08-12T13:34:11.091Z,27.50
2018-08-12T13:36:39.572Z,27.60
2018-08-12T13:39:10.544Z,27.50
2018-08-12T13:41:39.094Z,27.70
2018-08-12T13:44:07.645Z,27.60
2018-08-12T13:46:36.380Z,27.40
2018-08-12T13:49:04.893Z,27.40
2018-08-12T13:51:33.412Z,27.30
2018-08-12T13:54:01.965Z,27.40
2018-08-12T13:56:30.424Z,27.40
2018-08-12T13:58:59.107Z,27.50
2018-08-12T14:01:27.618Z,27.40
2018-08-12T14:03:56.066Z,27.30
2018-08-12T14:06:24.595Z,27.30
2018-08-12T14:08:53.131Z,27.60
2018-08-12T14:11:21.598Z,27.90
2018-08-12T14:13:50.138Z,27.80
2018-08-12T14:16:18.576Z,27.90
2018-08-12T14:18:47.057Z,27.80
2018-08-12T14:21:15.578Z,27.50
2018-08-12T14:23:44.089Z,27.40
2018-08-12T14:26:12.545Z,27.30
2018-08-12T14:28:41.070Z,27.20
2018-08-12T14:31:09.681Z,27.20
2018-08-12T14:33:38.189Z,27.50
2018-08-12T14:36:06.684Z,27.60
2018-08-12T14:38:35.191Z,27.80
2018-08-12T14:41:03.745Z,27.70
2018-08-12T14:43:32.265Z,27.60
2018-08-12T14:46:01.416Z,27.70
2018-08-12T14:48:29.976Z,27.70
2018-08-12T14:50:58.499Z,27.70
2018-08-12T14:53:27.005Z,27.60
2018-08-12T14:55:55.500Z,27.50
2018-08-12T14:58:23.967Z,27.40
2018-08-12T15:00:52.451Z,27.10
2018-08-12T15:03:20.924Z,27.00
2018-08-12T15:05:49.396Z,27.00
2018-08-12T15:08:18.502Z,27.00
2018-08-12T15:10:47.004Z,27.00
2018-08-12T15:13:15.505Z,27.30
2018-08-12T15:15:44.065Z,27.30
2018-08-12T15:18:12.525Z,27.30
2018-08-12T15:20:40.999Z,27.30
2018-08-12T15:23:09.548Z,27.40
2018-08-12T15:25:38.071Z,27.30
2018-08-12T15:28:06.598Z,27.40
2018-08-12T15:30:35.128Z,27.30
2018-08-12T15:33:03.701Z,27.30
2018-08-12T15:35:32.297Z,27.40
2018-08-12T15:38:00.797Z,27.30
2018-08-12T15:40:29.310Z,27.20
2018-08-12T15:42:57.784Z,27.10
2018-08-12T15:45:26.336Z,27.00
2018-08-12T15:47:54.916Z,27.20
2018-08-12T15:50:23.446Z,27.20
2018-08-12T15:52:51.961Z,27.30
2018-08-12T15:55:21.121Z,27.40
2018-08-12T15:57:49.629Z,27.60
2018-08-12T16:00:20.311Z,27.70
2018-08-12T16:02:48.982Z,27.80
2018-08-12T16:05:17.567Z,27.70
2018-08-12T16:07:47.133Z,27.80
2018-08-12T16:10:19.080Z,27.70
2018-08-12T16:12:48.694Z,27.70
2018-08-12T16:15:17.196Z,27.70
2018-08-12T16:17:45.712Z,27.70
2018-08-12T16:20:14.288Z,27.70
2018-08-12T16:22:43.098Z,27.70
2018-08-12T16:25:14.386Z,27.80
2018-08-12T16:27:44.636Z,27.70
2018-08-12T16:30:14.912Z,27.60
2018-08-12T16:32:44.086Z,27.40
2018-08-12T16:35:13.938Z,27.40
2018-08-12T16:37:43.308Z,27.50
2018-08-12T16:40:14.607Z,27.30
2018-08-12T16:42:43.167Z,27.10
2018-08-12T16:45:13.129Z,27.00
2018-08-12T16:47:41.784Z,26.90
2018-08-12T16:50:11.320Z,26.90
2018-08-12T16:52:40.628Z,27.00
2018-08-12T16:55:11.678Z,26.90
2018-08-12T16:57:40.146Z,26.80
2018-08-12T17:00:24.330Z,26.70
2018-08-12T17:02:52.882Z,26.80
2018-08-12T17:05:22.879Z,26.70
2018-08-12T17:07:51.580Z,26.70
2018-08-12T17:10:20.650Z,26.70
2018-08-12T17:12:49.164Z,26.80
2018-08-12T17:15:19.250Z,26.80
2018-08-12T17:17:48.386Z,26.70
2018-08-12T17:20:17.963Z,26.60
2018-08-12T17:22:47.696Z,26.70
2018-08-12T17:25:16.194Z,26.50
2018-08-12T17:27:44.738Z,26.50
2018-08-12T17:30:14.741Z,26.50
2018-08-12T17:32:43.251Z,26.40
2018-08-12T17:35:11.724Z,26.30
2018-08-12T17:37:41.001Z,26.20
2018-08-12T17:40:11.483Z,26.10
2018-08-12T17:42:40.012Z,26.00
2018-08-12T17:45:15.316Z,26.10
2018-08-12T17:47:43.864Z,25.90
2018-08-12T17:50:13.748Z,25.80
2018-08-12T17:52:42.284Z,25.70
2018-08-12T17:55:10.840Z,25.60
2018-08-12T17:57:39.340Z,25.50
2018-08-12T18:00:10.819Z,25.40
2018-08-12T18:02:39.625Z,25.40
2018-08-12T18:05:08.635Z,25.30
2018-08-12T18:07:37.503Z,25.30
2018-08-12T18:10:06.380Z,25.30
2018-08-12T18:12:35.124Z,25.30
2018-08-12T18:15:03.787Z,25.20
2018-08-12T18:17:32.296Z,25.10
2018-08-12T18:20:00.822Z,25.00
2018-08-12T18:22:29.360Z,24.90
2018-08-12T18:24:57.828Z,24.90
2018-08-12T18:27:26.286Z,24.80
2018-08-12T18:29:54.788Z,24.70
2018-08-12T18:32:23.277Z,24.60
2018-08-12T18:34:51.734Z,24.40
2018-08-12T18:37:20.230Z,24.30
2018-08-12T18:39:48.737Z,24.10
2018-08-12T18:42:17.297Z,24.00
2018-08-12T18:44:45.784Z,23.90
2018-08-12T18:47:14.259Z,23.80
2018-08-12T18:49:42.734Z,23.70
2018-08-12T18:52:11.240Z,23.50
2018-08-12T18:54:39.717Z,23.40
2018-08-12T18:57:08.224Z,23.40
2018-08-12T18:59:38.816Z,23.30
2018-08-12T19:02:07.388Z,23.20
2018-08-12T19:04:35.860Z,23.10
2018-08-12T19:07:04.400Z,23.00
2018-08-12T19:09:32.919Z,22.80
2018-08-12T19:12:01.460Z,22.70
2018-08-12T19:14:30.576Z,22.60
2018-08-12T19:16:59.045Z,22.50
2018-08-12T19:19:27.527Z,22.40
2018-08-12T19:21:56.096Z,22.30
2018-08-12T19:24:24.775Z,22.30
2018-08-12T19:26:53.304Z,22.10
2018-08-12T19:29:21.881Z,22.00
2018-08-12T19:31:50.368Z,21.90
2018-08-12T19:34:18.866Z,21.80
2018-08-12T19:36:47.358Z,21.80
2018-08-12T19:39:15.840Z,21.80
2018-08-12T19:41:44.356Z,21.70
2018-08-12T19:44:12.850Z,21.60
2018-08-12T19:46:41.307Z,21.50
2018-08-12T19:49:09.789Z,21.40
2018-08-12T19:51:38.308Z,21.30
2018-08-12T19:54:06.809Z,21.30
2018-08-12T19:56:35.264Z,21.30
2018-08-12T19:59:03.796Z,21.10
2018-08-12T20:01:32.301Z,21.00
2018-08-12T20:04:00.803Z,20.90
2018-08-12T20:06:29.324Z,20.80
2018-08-12T20:08:57.861Z,20.80
2018-08-12T20:11:26.328Z,20.80
2018-08-12T20:13:54.768Z,20.80
2018-08-12T20:16:23.197Z,20.70
2018-08-12T20:18:51.694Z,20.60
2018-08-12T20:21:20.176Z,20.50
2018-08-12T20:23:48.668Z,20.50
2018-08-12T20:26:17.149Z,20.50
2018-08-12T20:28:45.623Z,20.40
2018-08-12T20:31:14.109Z,20.30
2018-08-12T20:33:42.572Z,20.20
2018-08-12T20:36:11.113Z,19.90
2018-08-12T20:38:39.588Z,19.90
2018-08-12T20:41:08.561Z,19.90
2018-08-12T20:43:37.017Z,19.90
2018-08-12T20:46:05.500Z,19.90
2018-08-12T20:48:34.013Z,19.90
2018-08-12T20:51:02.499Z,19.90
2018-08-12T20:53:31.013Z,19.90
2018-08-12T20:55:59.620Z,19.90
2018-08-12T20:58:28.097Z,19.80
2018-08-12T21:00:57.352Z,19.70
2018-08-12T21:03:25.959Z,19.60
2018-08-12T21:05:54.448Z,19.40
2018-08-12T21:08:22.946Z,19.30
2018-08-12T21:10:51.424Z,19.30
2018-08-12T21:13:19.878Z,19.20
2018-08-12T21:15:48.464Z,19.20
2018-08-12T21:18:16.969Z,19.30
2018-08-12T21:20:45.467Z,19.10
2018-08-12T21:23:13.952Z,19.00
2018-08-12T21:25:42.504Z,19.00
2018-08-12T21:28:10.964Z,19.00
2018-08-12T21:30:39.425Z,18.90
2018-08-12T21:33:07.940Z,18.90
2018-08-12T21:35:36.420Z,18.80
2018-08-12T21:38:05.432Z,18.70
2018-08-12T21:40:33.917Z,18.70
2018-08-12T21:43:02.433Z,18.70
2018-08-12T21:45:30.900Z,18.70
2018-08-12T21:47:59.426Z,18.60
2018-08-12T21:50:28.464Z,18.60
2018-08-12T21:52:56.924Z,18.50
2018-08-12T21:55:25.431Z,18.50
2018-08-12T21:57:53.892Z,18.30
2018-08-12T22:00:22.392Z,18.30
2018-08-12T22:02:50.871Z,18.30
2018-08-12T22:05:19.413Z,18.40
2018-08-12T22:07:47.897Z,18.40
2018-08-12T22:10:16.388Z,18.40
2018-08-12T22:12:44.924Z,18.40
2018-08-12T22:15:13.397Z,18.40
2018-08-12T22:17:41.884Z,18.30
2018-08-12T22:20:10.465Z,18.30
2018-08-12T22:22:38.986Z,18.30
2018-08-12T22:25:07.608Z,18.20
2018-08-12T22:27:36.113Z,18.10
2018-08-12T22:30:04.981Z,18.10
2018-08-12T22:32:33.457Z,18.10
2018-08-12T22:35:01.970Z,18.10
2018-08-12T22:37:30.428Z,18.10
2018-08-12T22:39:58.897Z,18.10
2018-08-12T22:42:27.416Z,18.20
2018-08-12T22:44:55.874Z,18.30
2018-08-12T22:47:24.358Z,18.30
2018-08-12T22:49:52.920Z,18.30
2018-08-12T22:52:21.383Z,18.30
2018-08-12T22:54:49.891Z,18.30
2018-08-12T22:57:18.356Z,18.40
2018-08-12T22:59:46.831Z,18.30
2018-08-12T23:02:15.360Z,18.30
2018-08-12T23:04:43.864Z,18.20
2018-08-12T23:07:12.352Z,18.20
2018-08-12T23:09:40.835Z,18.30
2018-08-12T23:12:09.265Z,18.30
2018-08-12T23:14:37.740Z,18.30
2018-08-12T23:17:06.219Z,18.40
2018-08-12T23:19:34.736Z,18.30
2018-08-12T23:22:03.684Z,18.30
2018-08-12T23:24:32.268Z,18.30
2018-08-12T23:27:00.768Z,18.30
2018-08-12T23:29:29.228Z,18.40
2018-08-12T23:31:57.675Z,18.30
2018-08-12T23:34:26.123Z,18.30
2018-08-12T23:36:54.662Z,18.30
2018-08-12T23:39:29.742Z,18.30
2018-08-12T23:41:58.212Z,18.40
2018-08-12T23:44:26.664Z,18.30
2018-08-12T23:46:55.144Z,18.30
2018-08-12T23:49:23.668Z,18.40
2018-08-12T23:51:52.168Z,18.40
2018-08-12T23:54:20.792Z,18.30
2018-08-12T23:56:49.307Z,18.30
2018-08-12T23:59:17.801Z,18.20
